Houston, Texas
Traffic Map
Current Weather Conditions
Houston, Texas
Broken Clouds
Broken Clouds
57°
Feels Like: 57°
Wind Chill: 57° Ceiling: 25000
Heat Index: 57° Visibility: 10mi
Dew Point: 46° Wind: 5mph
Humidity: 67% Direction: 30° (NNE)
Pressure: 30.21in Gusts: 0mph
Raw Report DataKIAH 200653Z 03004KT 10SM SCT190 BKN250 14/08 A3021 RMK AO2 SLP231 T01390078
Traffic Incident Summary
Active as of:
Severity:
Category:
InformationThere was an issue retrieving the traffic information for this location. Please try a different location or try again shortly.
Advertisements